Time;durP1;ratioP1;P1;durP2;ratioP2;P2;SDS_P1;SDS_P2;PMS_P1;PMS_P2;Temp;Humidity;BMP_temperature;BMP_pressure;BME280_temperature;BME280_humidity;BME280_pressure;Samples;Min_cycle;Max_cycle;Signal;HPM_P1;HPM_P2
2023/10/07 00:01:24;;;;;;;0.90;0.90;;;20.00;67.10;;;;;;5098551;28;20052;-77
2023/10/07 00:03:53;;;;;;;0.80;0.80;;;20.00;67.00;;;;;;5098529;28;20039;-77
2023/10/07 00:06:19;;;;;;;0.98;0.90;;;20.00;67.10;;;;;;5096686;28;20529;-77
2023/10/07 00:08:45;;;;;;;1.05;1.00;;;20.00;67.10;;;;;;5098561;28;20101;-77
2023/10/07 00:11:16;;;;;;;1.10;1.10;;;20.00;67.10;;;;;;5103542;28;20509;-77
2023/10/07 00:13:42;;;;;;;0.75;0.75;;;20.00;67.10;;;;;;5098787;28;20036;-77
2023/10/07 00:16:11;;;;;;;0.80;0.80;;;20.00;67.10;;;;;;5094755;28;20038;-77
2023/10/07 00:18:38;;;;;;;1.00;1.00;;;20.00;67.10;;;;;;5093171;28;20040;-77
2023/10/07 00:21:04;;;;;;;1.38;1.27;;;20.00;67.10;;;;;;5099006;28;20047;-76
2023/10/07 00:23:30;;;;;;;1.02;1.00;;;20.00;67.10;;;;;;5098682;28;20135;-77
2023/10/07 00:26:00;;;;;;;1.10;1.10;;;20.00;67.10;;;;;;5100070;28;20042;-77
2023/10/07 00:28:32;;;;;;;1.00;1.00;;;20.00;67.10;;;;;;5078853;28;20424;-76
2023/10/07 00:31:12;;;;;;;0.90;0.90;;;20.00;67.10;;;;;;5097552;28;20039;-76
2023/10/07 00:34:02;;;;;;;1.00;1.00;;;20.00;67.20;;;;;;5093863;28;20092;-76
2023/10/07 00:39:00;;;;;;;0.90;0.90;;;20.00;67.10;;;;;;5094800;28;20047;-77
2023/10/07 00:41:29;;;;;;;0.90;0.90;;;20.00;67.10;;;;;;5094635;28;20053;-77
2023/10/07 00:43:59;;;;;;;0.95;0.90;;;20.00;67.10;;;;;;5102422;28;20056;-76
2023/10/07 00:46:28;;;;;;;0.80;0.80;;;20.00;67.20;;;;;;5096635;28;20042;-77
2023/10/07 00:48:57;;;;;;;0.70;0.70;;;20.00;67.10;;;;;;5077857;28;20576;-76
2023/10/07 00:51:36;;;;;;;1.00;1.00;;;20.00;67.20;;;;;;5077657;28;20118;-77
2023/10/07 00:54:50;;;;;;;0.88;0.88;;;20.00;67.30;;;;;;5089782;28;20055;-76
2023/10/07 00:57:07;;;;;;;1.10;1.10;;;19.90;67.40;;;;;;5089673;28;20044;-77
2023/10/07 00:59:34;;;;;;;0.85;0.85;;;20.00;67.40;;;;;;5075737;28;20032;-76
2023/10/07 01:02:00;;;;;;;1.13;1.02;;;20.00;67.40;;;;;;5097668;28;20032;-76
2023/10/07 01:04:39;;;;;;;1.13;1.02;;;20.00;67.40;;;;;;5079168;28;20043;-77
2023/10/07 01:07:05;;;;;;;0.90;0.90;;;20.00;67.40;;;;;;5076606;28;20047;-76
2023/10/07 01:09:31;;;;;;;0.80;0.80;;;19.90;67.30;;;;;;5093590;28;20093;-76
2023/10/07 01:11:59;;;;;;;0.70;0.70;;;19.90;67.30;;;;;;5099940;28;20040;-77
2023/10/07 01:14:29;;;;;;;0.80;0.80;;;20.00;67.40;;;;;;5098563;28;20044;-76
2023/10/07 01:16:55;;;;;;;0.80;0.77;;;19.90;67.30;;;;;;5099447;28;20134;-77
2023/10/07 01:19:36;;;;;;;0.80;0.80;;;19.90;67.20;;;;;;5092010;28;20135;-76
2023/10/07 01:22:12;;;;;;;0.98;0.98;;;19.90;67.10;;;;;;5096800;28;20517;-77
2023/10/07 01:27:16;;;;;;;0.77;0.77;;;19.90;67.20;;;;;;5094686;28;20036;-76
2023/10/07 01:29:42;;;;;;;0.88;0.88;;;19.90;67.30;;;;;;5088717;28;20135;-76
2023/10/07 01:32:12;;;;;;;0.68;0.68;;;19.90;68.00;;;;;;5094435;28;20135;-76
2023/10/07 01:34:38;;;;;;;0.90;0.90;;;19.90;67.20;;;;;;5101768;28;20051;-77
2023/10/07 01:37:11;;;;;;;0.98;0.85;;;19.90;67.10;;;;;;5094561;28;20386;-76
2023/10/07 01:39:40;;;;;;;0.83;0.83;;;19.90;67.00;;;;;;5084666;28;20043;-77
2023/10/07 01:42:13;;;;;;;1.10;1.00;;;19.90;67.10;;;;;;5090862;28;20717;-76
2023/10/07 01:44:40;;;;;;;0.85;0.85;;;19.90;67.00;;;;;;5089953;28;20051;-77
2023/10/07 01:47:16;;;;;;;0.75;0.75;;;19.90;67.10;;;;;;5097154;28;20044;-76
2023/10/07 01:49:43;;;;;;;0.95;0.95;;;19.90;67.00;;;;;;5093757;28;20036;-77
2023/10/07 01:52:09;;;;;;;0.65;0.65;;;19.90;67.10;;;;;;5094284;28;20040;-76
2023/10/07 01:54:35;;;;;;;0.82;0.82;;;19.90;67.20;;;;;;5086830;28;20089;-76
2023/10/07 01:57:04;;;;;;;0.60;0.60;;;19.90;67.90;;;;;;5096025;28;20490;-76
2023/10/07 01:59:30;;;;;;;0.65;0.65;;;19.90;67.00;;;;;;5093477;28;20043;-77
2023/10/07 02:02:04;;;;;;;0.65;0.65;;;19.90;67.10;;;;;;5100869;28;20416;-77
2023/10/07 02:04:31;;;;;;;0.60;0.60;;;19.90;67.10;;;;;;5096236;28;20043;-76
2023/10/07 02:06:56;;;;;;;1.10;1.10;;;19.90;67.10;;;;;;5096147;28;20043;-77
2023/10/07 02:09:35;;;;;;;0.80;0.80;;;19.90;67.10;;;;;;5093080;28;20421;-76
2023/10/07 02:12:01;;;;;;;0.80;0.80;;;19.90;67.30;;;;;;5097457;28;20039;-77
2023/10/07 02:14:27;;;;;;;0.90;0.90;;;19.90;67.20;;;;;;5112036;27;20075;-76
2023/10/07 02:16:53;;;;;;;0.85;0.85;;;19.90;67.10;;;;;;5102811;28;20050;-77
2023/10/07 02:19:32;;;;;;;1.00;1.00;;;19.90;67.20;;;;;;5098866;28;20044;-76
2023/10/07 02:22:06;;;;;;;0.98;0.98;;;19.90;67.10;;;;;;5086086;28;20104;-76
2023/10/07 02:24:35;;;;;;;1.00;1.00;;;19.90;67.10;;;;;;5087399;28;20126;-76
2023/10/07 02:27:17;;;;;;;0.60;0.60;;;19.90;67.00;;;;;;5094240;28;20044;-76
2023/10/07 02:29:43;;;;;;;0.90;0.90;;;19.80;66.90;;;;;;5094756;28;20078;-77
2023/10/07 02:32:17;;;;;;;0.80;0.80;;;19.90;66.90;;;;;;5096042;28;20036;-76
2023/10/07 02:34:52;;;;;;;0.80;0.80;;;19.90;66.90;;;;;;5099782;28;20131;-76
2023/10/07 02:37:18;;;;;;;1.20;0.82;;;19.90;67.00;;;;;;5095976;28;20032;-76
2023/10/07 02:39:47;;;;;;;1.13;0.73;;;19.90;67.00;;;;;;5090553;28;20097;-76
2023/10/07 02:42:21;;;;;;;1.00;1.00;;;19.90;67.10;;;;;;5084157;28;20114;-76
2023/10/07 02:44:54;;;;;;;1.02;1.00;;;19.90;67.10;;;;;;5109161;27;20087;-77
2023/10/07 02:47:20;;;;;;;0.70;0.70;;;19.90;67.00;;;;;;5084723;28;20063;-77
2023/10/07 02:49:49;;;;;;;1.05;1.05;;;19.80;67.00;;;;;;5095015;28;20119;-77
2023/10/07 02:52:17;;;;;;;0.70;0.70;;;19.90;67.10;;;;;;5092359;28;20044;-76
2023/10/07 02:54:43;;;;;;;0.82;0.82;;;19.90;67.00;;;;;;5096544;28;20047;-77
2023/10/07 02:57:21;;;;;;;0.80;0.80;;;19.90;67.00;;;;;;5077240;28;20043;-76
2023/10/07 03:00:00;;;;;;;0.73;0.73;;;19.90;66.90;;;;;;5089874;28;20068;-77
2023/10/07 03:02:37;;;;;;;0.82;0.80;;;19.90;67.20;;;;;;5096545;28;20079;-77
2023/10/07 03:07:34;;;;;;;1.30;1.20;;;19.80;67.10;;;;;;5097885;28;20044;-76
2023/10/07 03:10:16;;;;;;;0.90;0.90;;;19.80;67.10;;;;;;5091744;28;20038;-77
2023/10/07 03:12:56;;;;;;;0.73;0.73;;;19.80;67.00;;;;;;5087600;28;20069;-76
2023/10/07 03:17:59;;;;;;;1.00;0.98;;;19.80;67.00;;;;;;5076435;28;20509;-77
2023/10/07 03:23:18;;;;;;;0.85;0.85;;;19.80;66.90;;;;;;5098728;28;20069;-77
2023/10/07 03:28:38;;;;;;;0.98;0.98;;;19.80;67.20;;;;;;5088174;28;20112;-77
2023/10/07 03:31:10;;;;;;;0.73;0.73;;;19.80;67.10;;;;;;5096641;28;20092;-77
2023/10/07 03:33:45;;;;;;;0.88;0.88;;;19.80;67.00;;;;;;5086671;28;20524;-76
2023/10/07 03:41:35;;;;;;;;;;;19.80;67.30;;;;;;5096487;28;20138;-76
2023/10/07 03:44:01;;;;;;;0.60;0.60;;;19.80;67.10;;;;;;5100720;28;19919;-76
2023/10/07 03:46:27;;;;;;;1.00;1.00;;;19.80;67.10;;;;;;5087193;28;20043;-77
2023/10/07 03:48:53;;;;;;;1.20;1.10;;;19.80;67.30;;;;;;5096855;28;20097;-76
2023/10/07 03:51:21;;;;;;;0.90;0.90;;;19.80;67.30;;;;;;5090029;28;20152;-76
2023/10/07 03:53:47;;;;;;;1.20;1.20;;;19.80;67.40;;;;;;5096329;28;20060;-77
2023/10/07 03:56:16;;;;;;;0.73;0.73;;;19.80;67.20;;;;;;5093126;28;20117;-76
2023/10/07 03:58:42;;;;;;;1.00;1.00;;;19.80;67.20;;;;;;5095267;28;20127;-76
2023/10/07 04:01:17;;;;;;;0.95;0.95;;;19.80;67.20;;;;;;5093632;28;20165;-77
2023/10/07 04:03:49;;;;;;;0.73;0.73;;;19.80;67.30;;;;;;5093984;28;20047;-77
2023/10/07 04:06:18;;;;;;;1.00;1.00;;;19.80;67.20;;;;;;5075516;28;20047;-77
2023/10/07 04:08:52;;;;;;;0.93;0.93;;;19.80;67.10;;;;;;5092786;28;20107;-76
2023/10/07 04:11:26;;;;;;;;;;;19.80;67.20;;;;;;5096607;28;20513;-76
2023/10/07 04:13:55;;;;;;;1.00;1.00;;;19.80;67.10;;;;;;5098077;28;20385;-77
2023/10/07 04:16:24;;;;;;;0.85;0.82;;;19.80;67.10;;;;;;5089802;28;20039;-77
2023/10/07 04:18:58;;;;;;;1.00;1.00;;;19.80;67.10;;;;;;5097908;28;20075;-76
2023/10/07 04:21:24;;;;;;;0.82;0.82;;;19.80;67.20;;;;;;5093495;28;20094;-76
2023/10/07 04:23:50;;;;;;;0.70;0.70;;;19.80;67.40;;;;;;5098847;28;20142;-77
2023/10/07 04:26:21;;;;;;;0.80;0.80;;;19.80;67.20;;;;;;5097459;28;20175;-76
2023/10/07 04:28:59;;;;;;;0.80;0.80;;;19.80;68.10;;;;;;5095465;28;20569;-77
2023/10/07 04:31:29;;;;;;;1.35;0.70;;;19.80;67.20;;;;;;5091038;28;20863;-76
2023/10/07 04:33:55;;;;;;;0.80;0.80;;;19.80;67.20;;;;;;5094052;28;20032;-76
2023/10/07 04:36:33;;;;;;;1.00;1.00;;;19.80;67.20;;;;;;5094935;28;20028;-76
2023/10/07 04:38:59;;;;;;;0.93;0.93;;;19.70;67.20;;;;;;5098230;28;20089;-77
2023/10/07 04:43:59;;;;;;;0.88;0.88;;;19.80;67.30;;;;;;5098216;28;20511;-77
2023/10/07 04:46:30;;;;;;;0.80;0.80;;;19.80;67.40;;;;;;5094546;28;20039;-77
2023/10/07 04:48:56;;;;;;;0.80;0.80;;;19.80;67.20;;;;;;5092954;28;20054;-77
2023/10/07 04:54:01;;;;;;;0.70;0.70;;;19.80;67.30;;;;;;5095240;28;20044;-77
2023/10/07 04:56:27;;;;;;;1.15;1.02;;;19.80;67.40;;;;;;5097026;28;20078;-77
2023/10/07 04:58:53;;;;;;;0.90;0.90;;;19.80;67.20;;;;;;5100204;28;20043;-77
2023/10/07 05:01:30;;;;;;;0.65;0.65;;;19.70;67.30;;;;;;5091067;28;20126;-76
2023/10/07 05:03:56;;;;;;;0.88;0.88;;;19.70;67.40;;;;;;5087105;28;20068;-76
2023/10/07 05:06:22;;;;;;;0.68;0.68;;;19.70;67.30;;;;;;5094165;28;20059;-77
2023/10/07 05:08:48;;;;;;;0.90;0.90;;;19.70;67.30;;;;;;5096846;28;20047;-76
2023/10/07 05:11:17;;;;;;;1.10;1.10;;;19.70;67.50;;;;;;5097084;28;20043;-76
2023/10/07 05:13:44;;;;;;;1.10;1.08;;;19.70;67.30;;;;;;5095611;28;20160;-77
2023/10/07 05:16:11;;;;;;;1.20;1.10;;;19.70;67.10;;;;;;5098259;28;20043;-77
2023/10/07 05:18:38;;;;;;;0.65;0.65;;;19.70;67.30;;;;;;5097281;28;20226;-77
2023/10/07 05:21:04;;;;;;;0.70;0.70;;;19.70;67.30;;;;;;5098437;28;20058;-77
2023/10/07 05:23:30;;;;;;;1.33;0.85;;;19.70;67.20;;;;;;5097023;28;20043;-77
2023/10/07 05:25:58;;;;;;;0.98;0.98;;;19.70;67.20;;;;;;5099806;28;20131;-76
2023/10/07 05:28:27;;;;;;;0.82;0.82;;;19.70;67.40;;;;;;5093635;28;20505;-77
2023/10/07 05:30:52;;;;;;;0.77;0.77;;;19.70;67.30;;;;;;5093582;28;20052;-77
2023/10/07 05:33:20;;;;;;;0.70;0.70;;;19.70;67.20;;;;;;5094399;28;20054;-76
2023/10/07 05:35:49;;;;;;;0.80;0.80;;;19.70;67.30;;;;;;5097247;28;20067;-76
2023/10/07 05:38:18;;;;;;;1.00;0.90;;;19.70;67.30;;;;;;5098924;28;20047;-76
2023/10/07 05:40:44;;;;;;;0.80;0.80;;;19.70;67.40;;;;;;5096564;28;20047;-76
2023/10/07 05:43:09;;;;;;;0.90;0.90;;;19.70;67.30;;;;;;5096118;28;20039;-77
2023/10/07 05:45:35;;;;;;;0.95;0.95;;;19.70;67.50;;;;;;5090498;28;20101;-77
2023/10/07 05:48:01;;;;;;;1.08;1.08;;;19.70;67.40;;;;;;5093351;28;20589;-77
2023/10/07 05:50:27;;;;;;;0.88;0.88;;;19.70;67.30;;;;;;5096094;28;20123;-77
2023/10/07 05:52:53;;;;;;;0.70;0.70;;;19.70;67.30;;;;;;5099761;28;21229;-77
2023/10/07 05:55:19;;;;;;;1.02;1.02;;;19.70;67.40;;;;;;5091627;28;20467;-77
2023/10/07 05:57:44;;;;;;;0.80;0.80;;;19.70;67.20;;;;;;5094281;28;20559;-77
2023/10/07 06:00:10;;;;;;;0.68;0.68;;;19.70;67.50;;;;;;5095096;28;20118;-76
2023/10/07 06:02:37;;;;;;;0.93;0.93;;;19.70;67.40;;;;;;5092574;28;20843;-77
2023/10/07 06:05:10;;;;;;;1.42;0.85;;;19.70;67.10;;;;;;5102492;28;20039;-77
2023/10/07 06:07:38;;;;;;;0.85;0.85;;;19.70;67.40;;;;;;5090803;28;20043;-77
2023/10/07 06:10:06;;;;;;;0.90;0.90;;;19.70;67.40;;;;;;5096147;28;20042;-77
2023/10/07 06:12:33;;;;;;;0.95;0.95;;;19.70;67.40;;;;;;5096130;28;20808;-76
2023/10/07 06:14:59;;;;;;;0.98;0.98;;;19.70;67.30;;;;;;5109510;27;20066;-77
2023/10/07 06:17:26;;;;;;;0.85;0.85;;;19.70;67.40;;;;;;5093219;28;20048;-76
2023/10/07 06:19:52;;;;;;;1.13;1.13;;;19.70;67.50;;;;;;5107712;27;20108;-76
2023/10/07 06:22:17;;;;;;;0.70;0.70;;;19.70;67.40;;;;;;5094674;28;20044;-76
2023/10/07 06:24:43;;;;;;;0.90;0.90;;;19.70;67.30;;;;;;5094718;28;20442;-76
2023/10/07 06:27:13;;;;;;;0.85;0.85;;;19.70;67.00;;;;;;5091811;28;20043;-76
2023/10/07 06:29:43;;;;;;;0.70;0.70;;;19.70;67.30;;;;;;5095674;28;20054;-76
2023/10/07 06:32:28;;;;;;;0.88;0.88;;;19.70;67.20;;;;;;5098306;28;20038;-76
2023/10/07 06:34:57;;;;;;;;;;;19.70;67.30;;;;;;5098442;28;20048;-76
2023/10/07 06:37:28;;;;;;;0.60;0.60;;;19.70;67.30;;;;;;5091818;28;20589;-76
2023/10/07 06:39:54;;;;;;;1.10;0.88;;;19.70;67.30;;;;;;5088023;28;20557;-76
2023/10/07 06:42:24;;;;;;;0.80;0.80;;;19.70;67.40;;;;;;5074857;28;20130;-76
2023/10/07 06:44:57;;;;;;;1.05;1.02;;;19.70;67.40;;;;;;5097577;28;20078;-76
2023/10/07 06:47:29;;;;;;;0.70;0.70;;;19.70;67.20;;;;;;5096400;28;20033;-76
2023/10/07 06:49:56;;;;;;;0.85;0.85;;;19.70;67.40;;;;;;5096323;28;20027;-76
2023/10/07 06:52:22;;;;;;;0.82;0.82;;;19.70;67.50;;;;;;5083055;28;20488;-76
2023/10/07 06:54:47;;;;;;;1.00;1.00;;;19.70;68.30;;;;;;5112062;27;20060;-76
2023/10/07 06:57:13;;;;;;;1.25;1.15;;;19.70;67.30;;;;;;5093881;28;20075;-76
2023/10/07 06:59:45;;;;;;;0.70;0.70;;;19.70;67.20;;;;;;5097542;28;20107;-76
2023/10/07 07:02:17;;;;;;;0.73;0.73;;;19.70;67.10;;;;;;5099711;28;20040;-76
2023/10/07 07:04:43;;;;;;;0.88;0.88;;;19.70;67.20;;;;;;5096065;28;20120;-76
2023/10/07 07:07:12;;;;;;;1.20;1.08;;;19.60;67.10;;;;;;5091664;28;20074;-76
2023/10/07 07:09:41;;;;;;;1.00;1.00;;;19.70;67.10;;;;;;5093090;28;20033;-78
2023/10/07 07:12:10;;;;;;;0.80;0.80;;;19.70;67.20;;;;;;5094785;28;20106;-77
2023/10/07 07:14:36;;;;;;;1.20;0.65;;;19.70;67.20;;;;;;5093122;28;20116;-77
2023/10/07 07:20:15;;;;;;;0.93;0.70;;;19.70;67.10;;;;;;5099428;28;20524;-77
2023/10/07 07:22:33;;;;;;;0.57;0.57;;;19.70;67.90;;;;;;5092945;28;20036;-77
2023/10/07 07:25:04;;;;;;;0.70;0.70;;;19.70;67.10;;;;;;5096151;28;20497;-77
2023/10/07 07:27:33;;;;;;;0.88;0.88;;;19.70;66.90;;;;;;5092418;28;20123;-77
2023/10/07 07:30:02;;;;;;;0.80;0.80;;;19.70;66.90;;;;;;5096432;28;20070;-77
2023/10/07 07:32:32;;;;;;;0.80;0.80;;;19.70;66.80;;;;;;5093402;28;20041;-77
2023/10/07 07:35:02;;;;;;;0.73;0.73;;;19.70;66.90;;;;;;5102092;28;20590;-77
2023/10/07 07:37:31;;;;;;;1.02;1.02;;;19.70;66.70;;;;;;5092174;28;20498;-77
2023/10/07 07:39:59;;;;;;;0.90;0.90;;;19.70;66.80;;;;;;5095867;28;20039;-77
2023/10/07 07:42:27;;;;;;;0.90;0.90;;;19.70;66.90;;;;;;5092035;28;20040;-77
2023/10/07 07:44:56;;;;;;;0.90;0.90;;;19.70;66.70;;;;;;5091050;28;20468;-77
2023/10/07 07:47:22;;;;;;;0.85;0.85;;;19.70;66.70;;;;;;5093102;28;20051;-77
2023/10/07 07:49:48;;;;;;;0.70;0.60;;;19.70;66.50;;;;;;5096487;28;20036;-77
2023/10/07 07:52:15;;;;;;;0.82;0.82;;;19.70;66.50;;;;;;5094452;28;20048;-77
2023/10/07 07:54:41;;;;;;;0.70;0.70;;;19.70;66.50;;;;;;5095777;28;20036;-77
2023/10/07 07:57:12;;;;;;;0.90;0.90;;;19.70;66.50;;;;;;5095317;28;20071;-77
2023/10/07 07:59:38;;;;;;;0.65;0.65;;;19.70;66.30;;;;;;5100800;28;20035;-77
2023/10/07 08:02:12;;;;;;;1.00;0.80;;;19.70;66.10;;;;;;5103833;28;20040;-77
2023/10/07 08:04:43;;;;;;;0.93;0.82;;;19.70;66.30;;;;;;5098142;28;20035;-77
2023/10/07 08:07:21;;;;;;;0.70;0.70;;;19.70;66.10;;;;;;5092769;28;20092;-77
2023/10/07 08:09:50;;;;;;;0.80;0.80;;;19.70;66.30;;;;;;5095153;28;20071;-77
2023/10/07 08:12:19;;;;;;;0.90;0.90;;;19.70;67.10;;;;;;5095193;28;20036;-77
2023/10/07 08:14:50;;;;;;;0.52;0.52;;;19.70;66.30;;;;;;5096762;28;20043;-77
2023/10/07 08:17:19;;;;;;;0.85;0.85;;;19.70;66.20;;;;;;5098711;28;20039;-77
2023/10/07 08:19:52;;;;;;;0.68;0.68;;;19.70;66.20;;;;;;5100452;28;20056;-77
2023/10/07 08:22:20;;;;;;;0.80;0.80;;;19.70;66.20;;;;;;5100425;28;20116;-77
2023/10/07 08:24:47;;;;;;;1.00;1.00;;;19.70;66.30;;;;;;5097181;28;20048;-77
2023/10/07 08:30:05;;;;;;;;;;;19.80;66.30;;;;;;5089657;28;20109;-77
2023/10/07 08:32:37;;;;;;;0.70;0.70;;;19.80;66.50;;;;;;5097314;28;19926;-77
2023/10/07 08:35:17;;;;;;;0.98;0.98;;;19.80;66.60;;;;;;5101975;28;20029;-77
2023/10/07 08:37:46;;;;;;;0.80;0.80;;;19.80;66.00;;;;;;5082743;28;20044;-77
2023/10/07 08:40:26;;;;;;;0.70;0.70;;;19.80;65.90;;;;;;5099441;28;20524;-77
2023/10/07 08:42:58;;;;;;;0.90;0.90;;;19.80;65.90;;;;;;5089467;28;20432;-77
2023/10/07 08:45:23;;;;;;;0.90;0.90;;;19.80;66.10;;;;;;5079067;28;20032;-77
2023/10/07 08:47:52;;;;;;;0.85;0.85;;;19.80;66.10;;;;;;5062025;28;20066;-77
2023/10/07 08:50:23;;;;;;;0.65;0.65;;;19.80;66.20;;;;;;5082551;28;20035;-77
2023/10/07 08:53:07;;;;;;;0.70;0.70;;;19.80;66.00;;;;;;5100723;28;20048;-77
2023/10/07 08:55:33;;;;;;;0.90;0.80;;;19.80;65.90;;;;;;5098098;28;20046;-77
2023/10/07 08:58:02;;;;;;;0.80;0.80;;;19.90;66.80;;;;;;5095902;28;20047;-77
2023/10/07 09:00:45;;;;;;;0.93;0.93;;;19.90;66.90;;;;;;5111461;27;20032;-77
2023/10/07 09:03:14;;;;;;;0.80;0.80;;;19.90;66.00;;;;;;5090030;28;20417;-77
2023/10/07 09:05:41;;;;;;;1.00;1.00;;;19.90;65.80;;;;;;5097507;28;20452;-77
2023/10/07 09:08:11;;;;;;;0.80;0.80;;;19.90;65.90;;;;;;5100931;28;20050;-77
2023/10/07 09:10:38;;;;;;;1.13;0.73;;;19.90;65.90;;;;;;5092144;28;20067;-77
2023/10/07 09:13:05;;;;;;;0.65;0.60;;;19.90;65.80;;;;;;5094611;28;20039;-77
2023/10/07 09:15:35;;;;;;;0.85;0.85;;;19.90;66.00;;;;;;5094974;28;20074;-77
2023/10/07 09:18:03;;;;;;;0.63;0.63;;;19.90;66.60;;;;;;5099698;28;20044;-77
2023/10/07 09:20:33;;;;;;;0.65;0.65;;;19.90;65.80;;;;;;5091235;28;20123;-77
2023/10/07 09:23:01;;;;;;;0.88;0.88;;;19.90;65.80;;;;;;5097132;28;20052;-77
2023/10/07 09:25:33;;;;;;;0.90;0.90;;;19.90;65.80;;;;;;5098745;28;20598;-76
2023/10/07 09:28:00;;;;;;;0.98;0.80;;;19.90;65.90;;;;;;5079634;28;20410;-77
2023/10/07 09:30:38;;;;;;;0.95;0.95;;;19.90;66.70;;;;;;5081372;28;20047;-77
2023/10/07 09:33:10;;;;;;;0.57;0.57;;;20.00;66.10;;;;;;5094882;28;20086;-77
2023/10/07 09:35:36;;;;;;;0.65;0.65;;;20.00;66.30;;;;;;5097371;28;20409;-76
2023/10/07 09:38:02;;;;;;;0.60;0.60;;;20.00;66.10;;;;;;5082649;28;20039;-77
2023/10/07 09:43:18;;;;;;;0.70;0.70;;;20.00;66.10;;;;;;5080438;28;20401;-77
2023/10/07 09:45:46;;;;;;;0.50;0.50;;;20.00;66.00;;;;;;5071164;28;20081;-77
2023/10/07 09:48:15;;;;;;;1.00;1.00;;;20.00;65.90;;;;;;5084022;28;20123;-77
2023/10/07 09:50:42;;;;;;;1.20;1.10;;;20.00;66.00;;;;;;5096323;28;20093;-77
2023/10/07 09:53:24;;;;;;;0.95;0.95;;;20.00;66.00;;;;;;5062765;28;20044;-77
2023/10/07 09:56:20;;;;;;;0.95;0.95;;;20.00;66.20;;;;;;5094110;28;20043;-77
2023/10/07 09:59:15;;;;;;;1.00;1.00;;;20.00;66.20;;;;;;5112110;27;20510;-77
2023/10/07 10:02:24;;;;;;;0.88;0.88;;;20.00;65.90;;;;;;5083076;28;20043;-77
2023/10/07 10:05:28;;;;;;;0.73;0.73;;;20.00;65.90;;;;;;5100859;28;20085;-76
2023/10/07 10:08:04;;;;;;;0.77;0.77;;;20.00;65.90;;;;;;5102902;28;20054;-77
2023/10/07 10:10:32;;;;;;;0.70;0.70;;;20.10;66.00;;;;;;5094169;28;20531;-77
2023/10/07 10:18:05;;;;;;;0.75;0.75;;;20.10;65.40;;;;;;5095875;28;20044;-77
2023/10/07 10:20:42;;;;;;;0.80;0.80;;;20.10;65.40;;;;;;5095318;28;20573;-77
2023/10/07 10:23:18;;;;;;;1.02;0.77;;;20.10;65.40;;;;;;5102402;28;20124;-77
2023/10/07 10:25:48;;;;;;;0.70;0.70;;;20.10;65.30;;;;;;5094000;28;20048;-77
2023/10/07 10:28:27;;;;;;;0.68;0.68;;;20.10;65.40;;;;;;5077272;28;20044;-77
2023/10/07 10:30:54;;;;;;;0.88;0.88;;;20.10;65.30;;;;;;5093114;28;20117;-77
2023/10/07 10:33:20;;;;;;;0.90;0.90;;;20.10;66.20;;;;;;5097651;28;20565;-77
2023/10/07 10:35:48;;;;;;;0.80;0.80;;;20.10;65.30;;;;;;5078332;28;20110;-77
2023/10/07 10:38:14;;;;;;;0.77;0.77;;;20.10;65.20;;;;;;5100225;28;20039;-77
2023/10/07 10:40:39;;;;;;;0.70;0.70;;;20.10;65.30;;;;;;5092423;28;20039;-77
2023/10/07 10:43:05;;;;;;;0.80;0.80;;;20.10;65.20;;;;;;5078627;28;20043;-77
2023/10/07 10:45:31;;;;;;;0.70;0.70;;;20.10;65.20;;;;;;5055127;28;20130;-77
2023/10/07 10:48:00;;;;;;;1.30;0.90;;;20.20;65.30;;;;;;5095169;28;20071;-77
2023/10/07 10:50:29;;;;;;;0.70;0.70;;;20.20;65.30;;;;;;5097018;28;20506;-77
2023/10/07 10:52:59;;;;;;;0.90;0.90;;;20.20;65.30;;;;;;5102894;28;20052;-77
2023/10/07 10:55:25;;;;;;;0.65;0.65;;;20.20;65.30;;;;;;5086646;28;20527;-76
2023/10/07 10:57:54;;;;;;;0.60;0.60;;;20.20;65.20;;;;;;5094742;28;20040;-77
2023/10/07 11:00:23;;;;;;;0.50;0.50;;;20.20;65.30;;;;;;5091900;28;20059;-77
2023/10/07 11:02:55;;;;;;;0.77;0.77;;;20.20;65.30;;;;;;5096051;28;20521;-77
2023/10/07 11:05:21;;;;;;;0.60;0.60;;;20.20;65.30;;;;;;5078873;28;20247;-77
2023/10/07 11:07:48;;;;;;;1.00;1.00;;;20.20;65.40;;;;;;5100815;28;20417;-77
2023/10/07 11:10:22;;;;;;;0.63;0.63;;;20.20;65.40;;;;;;5075766;28;20509;-77
2023/10/07 11:12:52;;;;;;;0.70;0.70;;;20.20;65.50;;;;;;5092110;28;20040;-77
2023/10/07 11:15:24;;;;;;;0.68;0.68;;;20.20;65.40;;;;;;5093805;28;20031;-77
2023/10/07 11:18:15;;;;;;;0.60;0.60;;;20.20;66.30;;;;;;5098640;28;20076;-76
2023/10/07 11:20:41;;;;;;;0.63;0.63;;;20.20;65.40;;;;;;5095463;28;20518;-76
2023/10/07 11:23:08;;;;;;;0.73;0.60;;;20.20;65.40;;;;;;5089978;28;20609;-77
2023/10/07 11:25:35;;;;;;;0.90;0.90;;;20.30;65.50;;;;;;5099011;28;20075;-77
2023/10/07 11:28:09;;;;;;;0.82;0.82;;;20.30;65.40;;;;;;5073600;28;20044;-77
2023/10/07 11:30:46;;;;;;;0.63;0.63;;;20.30;65.30;;;;;;5092991;28;20464;-77
2023/10/07 11:33:16;;;;;;;0.68;0.68;;;20.30;65.50;;;;;;5094416;28;20032;-77
2023/10/07 11:35:42;;;;;;;0.90;0.90;;;20.30;65.40;;;;;;5093186;28;20098;-77
2023/10/07 11:38:09;;;;;;;0.70;0.70;;;20.30;65.40;;;;;;5098021;28;20413;-77
2023/10/07 11:40:34;;;;;;;0.70;0.70;;;20.30;65.40;;;;;;5099091;28;20051;-77
2023/10/07 11:43:08;;;;;;;0.52;0.52;;;20.30;65.40;;;;;;5092437;28;20484;-77
2023/10/07 11:45:36;;;;;;;0.70;0.70;;;20.30;65.50;;;;;;5089093;28;20036;-77
2023/10/07 11:48:04;;;;;;;0.57;0.57;;;20.30;65.60;;;;;;5096067;28;20044;-77
2023/10/07 11:50:34;;;;;;;0.90;0.90;;;20.30;65.50;;;;;;5091883;28;20044;-77
2023/10/07 11:53:06;;;;;;;0.70;0.70;;;20.30;65.50;;;;;;5093407;28;20082;-76
2023/10/07 11:55:32;;;;;;;0.70;0.70;;;20.30;65.50;;;;;;5091775;28;20512;-77
2023/10/07 11:57:58;;;;;;;0.70;0.70;;;20.30;65.50;;;;;;5095183;28;20065;-77
2023/10/07 12:00:27;;;;;;;0.80;0.80;;;20.30;65.50;;;;;;5086365;28;22131;-77
2023/10/07 12:02:57;;;;;;;0.60;0.60;;;20.30;65.50;;;;;;5094264;28;20044;-77
2023/10/07 12:05:28;;;;;;;0.80;0.80;;;20.30;65.50;;;;;;5096759;28;20089;-77
2023/10/07 12:08:01;;;;;;;0.60;0.60;;;20.30;65.50;;;;;;5110522;28;20706;-77
2023/10/07 12:10:33;;;;;;;0.70;0.70;;;20.40;65.60;;;;;;5093201;28;20497;-77
2023/10/07 12:12:59;;;;;;;0.93;0.63;;;20.40;65.60;;;;;;5090889;28;20142;-77
2023/10/07 12:15:25;;;;;;;0.60;0.60;;;20.40;65.60;;;;;;5091983;28;20072;-77
2023/10/07 12:17:51;;;;;;;0.50;0.50;;;20.40;65.50;;;;;;5093833;28;20116;-77
2023/10/07 12:20:19;;;;;;;0.60;0.60;;;20.40;65.60;;;;;;5094032;28;20101;-77
2023/10/07 12:22:45;;;;;;;0.68;0.68;;;20.40;65.60;;;;;;5090206;28;20052;-77
2023/10/07 12:25:18;;;;;;;0.50;0.50;;;20.40;65.60;;;;;;5093789;28;20039;-77
2023/10/07 12:27:44;;;;;;;0.60;0.60;;;20.40;65.70;;;;;;5090800;28;20096;-77
2023/10/07 12:30:11;;;;;;;0.75;0.75;;;20.40;65.70;;;;;;5091736;28;20041;-77
2023/10/07 12:32:43;;;;;;;0.77;0.77;;;20.40;65.80;;;;;;5095495;28;20047;-77
2023/10/07 12:35:10;;;;;;;1.23;0.70;;;20.40;65.80;;;;;;5100900;28;20043;-77
2023/10/07 12:37:38;;;;;;;0.60;0.60;;;20.40;65.80;;;;;;5091168;28;20039;-77
2023/10/07 12:40:10;;;;;;;0.80;0.80;;;20.40;65.80;;;;;;5093993;28;20038;-77
2023/10/07 12:42:40;;;;;;;0.68;0.68;;;20.40;65.90;;;;;;5099951;28;20044;-77
2023/10/07 12:45:06;;;;;;;0.77;0.77;;;20.40;65.90;;;;;;5099557;28;20027;-77
2023/10/07 12:47:33;;;;;;;0.70;0.70;;;20.40;65.80;;;;;;5095152;28;20044;-77
2023/10/07 12:49:59;;;;;;;0.70;0.70;;;20.40;65.90;;;;;;5101658;28;20116;-77
2023/10/07 12:52:26;;;;;;;0.60;0.60;;;20.40;65.80;;;;;;5094912;28;20126;-77
2023/10/07 12:54:52;;;;;;;0.77;0.77;;;20.40;65.90;;;;;;5094341;28;20035;-77
2023/10/07 12:57:17;;;;;;;0.60;0.60;;;20.40;65.90;;;;;;5095043;28;20051;-77
2023/10/07 12:59:47;;;;;;;0.82;0.82;;;20.40;65.80;;;;;;5093391;28;20025;-77
2023/10/07 13:02:17;;;;;;;0.63;0.63;;;20.40;65.80;;;;;;5100374;28;20054;-77
2023/10/07 13:04:44;;;;;;;0.73;0.73;;;20.40;66.00;;;;;;5097964;28;20504;-76
2023/10/07 13:07:10;;;;;;;0.70;0.70;;;20.40;65.90;;;;;;5097879;28;20047;-77
2023/10/07 13:09:40;;;;;;;0.82;0.82;;;20.40;65.90;;;;;;5092365;28;20043;-77
2023/10/07 13:12:11;;;;;;;0.80;0.80;;;20.40;66.00;;;;;;5094750;28;20472;-77
2023/10/07 13:14:40;;;;;;;0.60;0.60;;;20.40;66.00;;;;;;5097671;28;20027;-77
2023/10/07 13:17:06;;;;;;;0.68;0.68;;;20.40;66.00;;;;;;5100401;28;20063;-77
2023/10/07 13:19:36;;;;;;;0.70;0.70;;;20.50;65.90;;;;;;5078564;28;20039;-77
2023/10/07 13:22:01;;;;;;;0.80;0.80;;;20.50;65.90;;;;;;5091878;28;20047;-77
2023/10/07 13:24:29;;;;;;;0.65;0.65;;;20.50;66.20;;;;;;5093190;28;20044;-77
2023/10/07 13:26:55;;;;;;;0.80;0.80;;;20.50;66.00;;;;;;5089884;28;20039;-77
2023/10/07 13:29:20;;;;;;;0.82;0.82;;;20.50;66.00;;;;;;5100037;28;20134;-77
2023/10/07 13:31:46;;;;;;;0.75;0.75;;;20.50;65.90;;;;;;5102956;28;20044;-77
2023/10/07 13:34:14;;;;;;;0.70;0.70;;;20.50;66.00;;;;;;5083517;28;20052;-77
2023/10/07 13:36:42;;;;;;;0.70;0.70;;;20.50;66.70;;;;;;5093162;28;20130;-77
2023/10/07 13:39:15;;;;;;;0.80;0.80;;;20.50;66.00;;;;;;5097207;28;20451;-77
2023/10/07 13:41:44;;;;;;;0.73;0.73;;;20.50;66.70;;;;;;5077784;28;20086;-77